« Back
NWS Peachtree City, Ga » Text Product » ATL Terminal Aerodrome Forecast


Printer-friendly Version
Current Version              Previous Versions:   1  2  3  4  5  6  7  8  9  

Terminal Aerodrome Forecast

952
FTUS42 KFFC 230500
TAFATL
TAF
KATL 230522Z 2306/2412 28004KT P6SM FEW250
     FM230800 30004KT P6SM FEW012
     FM231300 33008KT P6SM SKC
     FM240700 02004KT P6SM SKC
     FM241000 06005KT P6SM SKC=



USA.gov is the U.S. government's official web portal to all federal, state and local government web resources and services.